createdAt,value
2023-01-19T00:02:11.409Z,77.00
2023-01-19T00:05:53.128Z,77.00
2023-01-19T00:09:38.410Z,76.90
2023-01-19T00:13:20.101Z,77.00
2023-01-19T00:17:01.901Z,77.10
2023-01-19T00:20:45.778Z,77.60
2023-01-19T00:24:27.386Z,77.60
2023-01-19T00:28:13.214Z,77.60
2023-01-19T00:31:55.327Z,77.10
2023-01-19T00:35:37.109Z,77.30
2023-01-19T00:39:19.347Z,77.30
2023-01-19T00:43:01.543Z,77.60
2023-01-19T00:46:43.545Z,77.40
2023-01-19T00:50:26.428Z,77.50
2023-01-19T00:54:10.419Z,77.50
2023-01-19T00:57:52.169Z,77.60
2023-01-19T01:01:46.218Z,78.10
2023-01-19T01:05:28.303Z,78.70
2023-01-19T01:09:13.240Z,79.00
2023-01-19T01:12:57.692Z,79.20
2023-01-19T01:16:40.332Z,79.40
2023-01-19T01:20:27.837Z,79.50
2023-01-19T01:24:10.957Z,79.60
2023-01-19T01:27:53.199Z,79.30
2023-01-19T01:31:35.227Z,79.00
2023-01-19T01:35:17.018Z,78.80
2023-01-19T01:39:00.048Z,78.80
2023-01-19T01:42:42.525Z,79.10
2023-01-19T01:46:24.670Z,79.30
2023-01-19T01:50:16.448Z,79.60
2023-01-19T01:54:18.893Z,80.10
2023-01-19T01:58:04.151Z,80.40
2023-01-19T02:02:04.681Z,80.40
2023-01-19T02:05:46.682Z,80.60
2023-01-19T02:09:46.935Z,80.60
2023-01-19T02:13:30.584Z,80.20
2023-01-19T02:17:13.206Z,79.60
2023-01-19T02:21:19.342Z,79.20
2023-01-19T02:25:01.116Z,79.50
2023-01-19T02:28:48.361Z,79.40
2023-01-19T02:32:30.246Z,79.50
2023-01-19T02:36:12.541Z,80.20
2023-01-19T02:39:58.916Z,79.60
2023-01-19T02:43:41.041Z,79.60
2023-01-19T02:47:23.221Z,79.60
2023-01-19T02:51:21.230Z,79.70
2023-01-19T02:55:13.335Z,79.70
2023-01-19T02:59:37.189Z,79.60
2023-01-19T03:03:39.182Z,79.80
2023-01-19T03:07:39.904Z,79.70
2023-01-19T03:11:21.686Z,79.90
2023-01-19T03:15:19.044Z,80.50
2023-01-19T03:19:20.135Z,80.10
2023-01-19T03:23:03.340Z,80.40
2023-01-19T03:26:48.901Z,80.30
2023-01-19T03:30:41.700Z,80.20
2023-01-19T03:34:23.996Z,80.20
2023-01-19T03:38:08.665Z,80.30
2023-01-19T03:41:53.235Z,80.40
2023-01-19T03:45:36.918Z,80.70
2023-01-19T03:49:19.854Z,80.80
2023-01-19T03:53:02.640Z,81.10
2023-01-19T03:56:44.711Z,81.30
2023-01-19T04:00:27.727Z,81.40
2023-01-19T04:04:09.447Z,81.60
2023-01-19T04:07:51.932Z,81.70
2023-01-19T04:11:33.978Z,82.00
2023-01-19T04:15:15.740Z,82.20
2023-01-19T04:18:57.735Z,82.20
2023-01-19T04:22:39.632Z,82.10
2023-01-19T04:26:21.390Z,81.80
2023-01-19T04:30:04.211Z,81.50
2023-01-19T04:33:45.886Z,81.50
2023-01-19T04:37:27.737Z,81.20
2023-01-19T04:41:09.934Z,81.00
2023-01-19T04:44:52.555Z,80.90
2023-01-19T04:48:34.249Z,80.70
2023-01-19T04:52:15.923Z,80.60
2023-01-19T04:55:59.601Z,80.70
2023-01-19T04:59:42.468Z,80.80
2023-01-19T05:03:25.799Z,80.90
2023-01-19T05:07:08.258Z,81.10
2023-01-19T05:10:51.246Z,81.10
2023-01-19T05:14:32.944Z,81.30
2023-01-19T05:18:14.743Z,81.20
2023-01-19T05:21:56.959Z,81.20
2023-01-19T05:25:38.659Z,81.30
2023-01-19T05:29:20.453Z,82.00
2023-01-19T05:33:02.537Z,81.30
2023-01-19T05:36:44.430Z,81.50
2023-01-19T05:40:26.335Z,81.40
2023-01-19T05:44:09.200Z,81.40
2023-01-19T05:47:50.946Z,81.40
2023-01-19T05:51:37.818Z,81.20
2023-01-19T05:55:20.326Z,81.20
2023-01-19T05:59:03.248Z,81.80
2023-01-19T06:02:45.094Z,81.20
2023-01-19T06:06:26.798Z,81.10
2023-01-19T06:10:09.827Z,81.10
2023-01-19T06:13:51.499Z,81.10
2023-01-19T06:17:33.456Z,81.20
2023-01-19T06:21:15.360Z,81.10
2023-01-19T06:24:57.027Z,81.80
2023-01-19T06:28:38.755Z,81.10
2023-01-19T06:32:20.416Z,81.10
2023-01-19T06:36:02.163Z,80.80
2023-01-19T06:39:45.393Z,80.80
2023-01-19T06:43:27.259Z,80.70
2023-01-19T06:47:14.907Z,80.70
2023-01-19T06:50:59.494Z,81.10
2023-01-19T06:54:43.195Z,81.10
2023-01-19T06:58:27.716Z,81.10
2023-01-19T07:02:26.966Z,81.30
2023-01-19T07:06:10.050Z,81.30
2023-01-19T07:09:54.081Z,81.30
2023-01-19T07:13:36.845Z,81.40
2023-01-19T07:17:18.845Z,81.40
2023-01-19T07:21:00.727Z,81.60
2023-01-19T07:24:42.476Z,81.60
2023-01-19T07:28:24.714Z,81.50
2023-01-19T07:32:07.521Z,81.70
2023-01-19T07:35:49.534Z,81.60
2023-01-19T07:39:32.007Z,81.70
2023-01-19T07:43:14.159Z,81.90
2023-01-19T07:46:55.933Z,81.70
2023-01-19T07:50:37.797Z,81.70
2023-01-19T07:54:20.757Z,81.70
2023-01-19T07:58:06.480Z,81.80
2023-01-19T08:01:48.515Z,81.80
2023-01-19T08:05:30.300Z,82.00
2023-01-19T08:09:14.267Z,81.90
2023-01-19T08:12:56.675Z,82.00
2023-01-19T08:16:38.429Z,82.00
2023-01-19T08:20:20.299Z,81.80
2023-01-19T08:24:02.059Z,81.80
2023-01-19T08:27:44.580Z,81.90
2023-01-19T08:31:26.822Z,82.00
2023-01-19T08:35:09.276Z,82.10
2023-01-19T08:38:51.069Z,82.10
2023-01-19T08:42:32.743Z,82.00
2023-01-19T08:46:18.875Z,82.30
2023-01-19T08:50:00.745Z,81.70
2023-01-19T08:53:43.052Z,81.60
2023-01-19T08:57:24.839Z,81.50
2023-01-19T09:01:08.619Z,81.30
2023-01-19T09:04:50.297Z,81.40
2023-01-19T09:08:31.970Z,81.50
2023-01-19T09:12:13.828Z,81.40
2023-01-19T09:15:55.539Z,81.90
2023-01-19T09:19:37.334Z,81.40
2023-01-19T09:23:20.086Z,81.60
2023-01-19T09:27:01.810Z,81.90
2023-01-19T09:30:44.204Z,82.00
2023-01-19T09:34:26.018Z,82.20
2023-01-19T09:38:08.897Z,82.30
2023-01-19T09:41:59.634Z,82.20
2023-01-19T09:45:53.730Z,82.20
2023-01-19T09:49:36.889Z,82.10
2023-01-19T09:53:23.895Z,81.90
2023-01-19T09:57:10.020Z,81.60
2023-01-19T10:00:56.567Z,81.50
2023-01-19T10:05:05.710Z,81.40
2023-01-19T10:08:52.542Z,81.30
2023-01-19T10:12:53.849Z,81.10
2023-01-19T10:16:51.188Z,81.00
2023-01-19T10:20:44.621Z,81.10
2023-01-19T10:24:40.035Z,81.60
2023-01-19T10:28:23.805Z,80.90
2023-01-19T10:32:20.058Z,80.80
2023-01-19T10:36:06.652Z,81.40
2023-01-19T10:40:05.906Z,80.60
2023-01-19T10:43:47.806Z,80.60
2023-01-19T10:47:36.064Z,80.70
2023-01-19T10:51:18.318Z,80.70
2023-01-19T10:55:01.363Z,80.40
2023-01-19T10:58:43.195Z,80.30
2023-01-19T11:02:29.365Z,80.30
2023-01-19T11:06:15.403Z,80.30
2023-01-19T11:10:15.644Z,80.00
2023-01-19T11:14:08.900Z,79.90
2023-01-19T11:17:50.632Z,79.50
2023-01-19T11:21:32.432Z,79.30
2023-01-19T11:25:22.086Z,79.30
2023-01-19T11:29:04.053Z,79.10
2023-01-19T11:32:46.240Z,79.40
2023-01-19T11:36:32.265Z,79.20
2023-01-19T11:40:15.722Z,78.40
2023-01-19T11:44:20.433Z,77.70
2023-01-19T11:48:04.307Z,77.40
2023-01-19T11:52:21.960Z,77.10
2023-01-19T11:56:08.517Z,76.70
2023-01-19T11:59:52.944Z,76.20
2023-01-19T12:03:42.042Z,75.30
2023-01-19T12:07:28.126Z,74.50
2023-01-19T12:11:12.344Z,74.40
2023-01-19T12:15:29.075Z,74.30
2023-01-19T12:19:16.465Z,74.40
2023-01-19T12:22:59.923Z,74.20
2023-01-19T12:26:57.718Z,74.20
2023-01-19T12:30:39.575Z,73.80
2023-01-19T12:34:35.988Z,74.50
2023-01-19T12:38:24.539Z,73.80
2023-01-19T12:42:14.599Z,73.40
2023-01-19T12:45:56.352Z,72.80
2023-01-19T12:49:38.085Z,73.40
2023-01-19T12:53:20.441Z,72.70
2023-01-19T12:57:04.436Z,72.60
2023-01-19T13:00:47.276Z,72.60
2023-01-19T13:04:33.199Z,71.70
2023-01-19T13:08:16.501Z,72.10
2023-01-19T13:12:30.709Z,72.10
2023-01-19T13:16:18.628Z,71.80
2023-01-19T13:20:21.908Z,71.20
2023-01-19T13:24:08.139Z,70.10
2023-01-19T13:27:50.022Z,71.00
2023-01-19T13:31:36.032Z,71.20
2023-01-19T13:35:18.683Z,69.30
2023-01-19T13:39:03.082Z,69.90
2023-01-19T13:42:44.753Z,70.00
2023-01-19T13:46:26.553Z,70.20
2023-01-19T13:50:28.000Z,69.60
2023-01-19T13:54:15.553Z,68.80
2023-01-19T13:57:57.309Z,69.50
2023-01-19T14:01:40.998Z,69.00
2023-01-19T14:05:24.207Z,69.00
2023-01-19T14:09:17.383Z,68.80
2023-01-19T14:13:00.174Z,67.90
2023-01-19T14:16:41.931Z,69.10
2023-01-19T14:20:30.491Z,68.10
2023-01-19T14:24:17.872Z,67.50
2023-01-19T14:28:27.890Z,67.80
2023-01-19T14:32:14.821Z,67.60
2023-01-19T14:35:56.578Z,67.10
2023-01-19T14:39:38.292Z,67.60
2023-01-19T14:43:21.980Z,67.60
2023-01-19T14:47:04.712Z,67.90
2023-01-19T14:51:01.974Z,67.90
2023-01-19T14:54:44.334Z,68.10
2023-01-19T14:58:26.734Z,67.80
2023-01-19T15:02:09.113Z,67.40
2023-01-19T15:05:51.024Z,67.30
2023-01-19T15:09:32.799Z,67.20
2023-01-19T15:13:21.851Z,66.50
2023-01-19T15:17:03.622Z,65.90
2023-01-19T15:20:45.388Z,66.30
2023-01-19T15:24:27.126Z,66.70
2023-01-19T15:28:13.039Z,66.60
2023-01-19T15:31:54.830Z,65.50
2023-01-19T15:35:36.571Z,66.30
2023-01-19T15:39:18.365Z,66.60
2023-01-19T15:43:00.039Z,66.40
2023-01-19T15:46:41.730Z,66.40
2023-01-19T15:50:24.646Z,66.20
2023-01-19T15:54:08.566Z,66.20
2023-01-19T15:57:50.144Z,66.50
2023-01-19T16:01:32.829Z,68.10
2023-01-19T16:05:14.830Z,66.50
2023-01-19T16:09:01.056Z,66.20
2023-01-19T16:12:43.947Z,66.70
2023-01-19T16:16:25.911Z,65.50
2023-01-19T16:20:08.517Z,65.40
2023-01-19T16:23:50.584Z,65.30
2023-01-19T16:27:32.282Z,65.70
2023-01-19T16:31:15.119Z,66.00
2023-01-19T16:34:56.874Z,66.20
2023-01-19T16:38:38.735Z,66.60
2023-01-19T16:42:20.500Z,66.80
2023-01-19T16:46:02.741Z,66.80
2023-01-19T16:49:44.750Z,66.90
2023-01-19T16:53:27.059Z,67.10
2023-01-19T16:57:08.841Z,67.30
2023-01-19T17:00:50.931Z,67.80
2023-01-19T17:04:32.894Z,68.00
2023-01-19T17:08:14.598Z,68.10
2023-01-19T17:11:58.170Z,68.00
2023-01-19T17:15:39.925Z,68.20
2023-01-19T17:19:22.903Z,68.30
2023-01-19T17:23:04.576Z,68.40
2023-01-19T17:26:48.570Z,68.60
2023-01-19T17:30:30.602Z,68.60
2023-01-19T17:34:12.334Z,68.70
2023-01-19T17:37:54.734Z,68.80
2023-01-19T17:41:36.854Z,68.80
2023-01-19T17:45:18.683Z,69.00
2023-01-19T17:49:03.191Z,69.20
2023-01-19T17:52:44.943Z,69.40
2023-01-19T17:56:29.755Z,69.60
2023-01-19T18:00:14.958Z,69.70
2023-01-19T18:03:57.121Z,69.90
2023-01-19T18:07:39.842Z,70.10
2023-01-19T18:11:22.880Z,70.30
2023-01-19T18:15:05.613Z,70.40
2023-01-19T18:18:49.565Z,70.50
2023-01-19T18:22:32.193Z,70.70
2023-01-19T18:26:16.140Z,71.00
2023-01-19T18:29:57.970Z,71.10
2023-01-19T18:33:39.849Z,71.20
2023-01-19T18:37:21.578Z,71.50
2023-01-19T18:41:04.745Z,71.70
2023-01-19T18:44:46.457Z,71.70
2023-01-19T18:48:28.151Z,71.90
2023-01-19T18:52:09.875Z,72.00
2023-01-19T18:55:52.836Z,72.10
2023-01-19T18:59:34.811Z,72.30
2023-01-19T19:03:16.796Z,72.40
2023-01-19T19:06:58.489Z,72.60
2023-01-19T19:10:40.824Z,72.80
2023-01-19T19:14:22.500Z,72.90
2023-01-19T19:18:04.310Z,73.20
2023-01-19T19:21:46.262Z,73.40
2023-01-19T19:25:27.930Z,73.60
2023-01-19T19:29:09.845Z,73.70
2023-01-19T19:32:56.053Z,73.70
2023-01-19T19:36:37.760Z,73.90
2023-01-19T19:40:19.643Z,74.00
2023-01-19T19:44:01.318Z,74.00
2023-01-19T19:47:43.825Z,74.20
2023-01-19T19:51:27.803Z,74.20
2023-01-19T19:55:10.206Z,74.30
2023-01-19T19:58:53.387Z,74.40
2023-01-19T20:02:35.115Z,74.50
2023-01-19T20:06:20.756Z,74.50
2023-01-19T20:10:02.572Z,74.70
2023-01-19T20:13:44.662Z,74.80
2023-01-19T20:17:26.435Z,75.40
2023-01-19T20:21:19.019Z,74.90
2023-01-19T20:25:00.675Z,75.10
2023-01-19T20:28:42.404Z,75.10
2023-01-19T20:32:24.753Z,75.10
2023-01-19T20:36:06.557Z,75.20
2023-01-19T20:39:48.348Z,75.10
2023-01-19T20:43:30.422Z,75.10
2023-01-19T20:47:12.139Z,75.10
2023-01-19T20:51:04.201Z,75.00
2023-01-19T20:54:45.894Z,75.20
2023-01-19T20:58:27.784Z,75.10
2023-01-19T21:02:14.228Z,75.00
2023-01-19T21:05:58.590Z,75.10
2023-01-19T21:09:42.755Z,75.20
2023-01-19T21:13:24.500Z,75.20
2023-01-19T21:17:06.187Z,75.30
2023-01-19T21:20:49.109Z,75.30
2023-01-19T21:24:30.895Z,75.40
2023-01-19T21:28:12.578Z,75.40
2023-01-19T21:31:54.454Z,75.50
2023-01-19T21:35:36.551Z,75.70
2023-01-19T21:39:18.371Z,75.80
2023-01-19T21:43:00.116Z,75.90
2023-01-19T21:46:41.890Z,76.00
2023-01-19T21:50:23.724Z,76.20
2023-01-19T21:54:06.203Z,76.40
2023-01-19T21:57:47.885Z,76.40
2023-01-19T22:01:33.444Z,76.50
2023-01-19T22:05:15.503Z,76.70
2023-01-19T22:08:58.329Z,76.70
2023-01-19T22:12:40.371Z,76.80
2023-01-19T22:16:22.628Z,76.70
2023-01-19T22:20:04.912Z,76.50
2023-01-19T22:23:53.758Z,76.30
2023-01-19T22:27:37.364Z,75.90
2023-01-19T22:31:19.293Z,75.60
2023-01-19T22:35:01.045Z,75.30
2023-01-19T22:38:43.535Z,75.30
2023-01-19T22:42:25.214Z,75.20
2023-01-19T22:46:08.758Z,75.20
2023-01-19T22:49:50.673Z,75.50
2023-01-19T22:53:32.844Z,75.50
2023-01-19T22:57:14.517Z,75.60
2023-01-19T23:00:56.583Z,75.90
2023-01-19T23:04:39.422Z,75.60
2023-01-19T23:08:21.108Z,75.40
2023-01-19T23:12:03.101Z,75.30
2023-01-19T23:15:44.793Z,75.40
2023-01-19T23:19:26.596Z,75.60
2023-01-19T23:23:08.273Z,75.60
2023-01-19T23:26:50.609Z,75.60
2023-01-19T23:30:32.456Z,75.60
2023-01-19T23:34:14.590Z,75.80
2023-01-19T23:37:56.338Z,75.80
2023-01-19T23:41:39.403Z,75.90
2023-01-19T23:45:21.152Z,75.90
2023-01-19T23:49:02.846Z,76.20
2023-01-19T23:52:44.571Z,76.00
2023-01-19T23:56:28.305Z,75.80
